Time;durP1;ratioP1;P1;durP2;ratioP2;P2;SDS_P1;SDS_P2;PMS_P1;PMS_P2;Temp;Humidity;BMP_temperature;BMP_pressure;BME280_temperature;BME280_humidity;BME280_pressure;Samples;Min_cycle;Max_cycle;Signal;HPM_P1;HPM_P2
2021/12/18 00:01:15;;;;;;;34.70;19.58;;;;;;;;;;5009228;28;20042;-64
2021/12/18 00:03:41;;;;;;;19.05;6.85;;;;;;;;;;5008786;28;20038;-64
2021/12/18 00:06:08;;;;;;;14.63;5.55;;;;;;;;;;5010363;28;20042;-63
2021/12/18 00:08:34;;;;;;;11.02;5.05;;;;;;;;;;5011190;28;20049;-64
2021/12/18 00:11:01;;;;;;;11.23;4.95;;;;;;;;;;5009898;28;20034;-64
2021/12/18 00:13:27;;;;;;;11.88;5.18;;;;;;;;;;5004436;28;20041;-64
2021/12/18 00:18:27;;;;;;;17.13;5.18;;;;;;;;;;5020104;28;20042;-75
2021/12/18 00:20:53;;;;;;;12.63;5.18;;;;;;;;;;5028492;28;20033;-74
2021/12/18 00:23:19;;;;;;;9.38;4.65;;;;;;;;;;5029959;28;20037;-75
2021/12/18 00:25:45;;;;;;;7.85;3.60;;;;;;;;;;5029543;28;20730;-75
2021/12/18 00:28:11;;;;;;;8.48;3.80;;;;;;;;;;5030981;28;20040;-75
2021/12/18 00:30:38;;;;;;;10.48;3.88;;;;;;;;;;5032558;28;20057;-75
2021/12/18 00:33:05;;;;;;;9.60;3.90;;;;;;;;;;5032806;28;20542;-74
2021/12/18 00:35:33;;;;;;;6.00;3.28;;;;;;;;;;5033612;28;20045;-74
2021/12/18 00:38:03;;;;;;;8.30;3.83;;;;;;;;;;5032604;28;20069;-75
2021/12/18 00:40:36;;;;;;;11.30;3.45;;;;;;;;;;5032598;28;20045;-75
2021/12/18 00:43:20;;;;;;;21.65;4.53;;;;;;;;;;5032047;28;20045;-75
2021/12/18 00:45:46;;;;;;;11.80;4.35;;;;;;;;;;5031991;28;20041;-74
2021/12/18 00:48:12;;;;;;;10.20;3.90;;;;;;;;;;5031962;28;20033;-75
2021/12/18 00:50:38;;;;;;;9.43;4.05;;;;;;;;;;5032091;28;20080;-75
2021/12/18 00:53:03;;;;;;;10.07;4.00;;;;;;;;;;5032477;28;20037;-75
2021/12/18 00:55:29;;;;;;;11.13;3.97;;;;;;;;;;5032888;28;20091;-75
2021/12/18 00:57:55;;;;;;;15.10;3.72;;;;;;;;;;5031820;28;20034;-75
2021/12/18 01:00:24;;;;;;;9.65;3.28;;;;;;;;;;5033013;28;20383;-74
2021/12/18 01:02:57;;;;;;;11.50;3.55;;;;;;;;;;5032606;28;20046;-75
2021/12/18 01:05:24;;;;;;;9.23;2.92;;;;;;;;;;5032909;28;20139;-75
2021/12/18 01:07:50;;;;;;;5.25;2.28;;;;;;;;;;5032399;28;20040;-75
2021/12/18 01:12:44;;;;;;;8.88;3.10;;;;;;;;;;5032622;28;20060;-75
2021/12/18 01:15:23;;;;;;;8.57;2.75;;;;;;;;;;5032434;28;20052;-75
2021/12/18 01:23:22;;;;;;;5.75;2.75;;;;;;;;;;5032072;28;20053;-75
2021/12/18 01:25:48;;;;;;;7.53;3.40;;;;;;;;;;5032135;28;20094;-75
2021/12/18 01:28:14;;;;;;;6.68;3.50;;;;;;;;;;5031140;28;20033;-75
2021/12/18 01:30:40;;;;;;;8.02;3.17;;;;;;;;;;5031768;28;20517;-75
2021/12/18 01:33:06;;;;;;;8.98;2.80;;;;;;;;;;5031514;28;20064;-75
2021/12/18 01:35:32;;;;;;;9.82;2.47;;;;;;;;;;5031842;28;20057;-75
2021/12/18 01:37:58;;;;;;;6.20;2.05;;;;;;;;;;5031264;28;20037;-75
2021/12/18 01:40:25;;;;;;;6.97;2.20;;;;;;;;;;5031072;28;20041;-75
2021/12/18 01:43:53;;;;;;;7.63;2.53;;;;;;;;;;5031120;28;20049;-75
2021/12/18 01:46:13;;;;;;;7.35;2.60;;;;;;;;;;5031222;28;20099;-75
2021/12/18 01:51:34;;;;;;;8.13;2.40;;;;;;;;;;5032010;28;20051;-75
2021/12/18 01:54:00;;;;;;;7.60;2.50;;;;;;;;;;5031539;28;20052;-75
2021/12/18 01:56:27;;;;;;;11.25;2.70;;;;;;;;;;5031697;28;20045;-74
2021/12/18 01:58:53;;;;;;;9.52;2.70;;;;;;;;;;5031861;28;20045;-75
2021/12/18 02:01:19;;;;;;;8.35;2.72;;;;;;;;;;5031459;28;20049;-75
2021/12/18 02:03:46;;;;;;;12.48;3.10;;;;;;;;;;5031738;28;20069;-75
2021/12/18 02:06:13;;;;;;;10.95;3.10;;;;;;;;;;5029284;28;20420;-75
2021/12/18 02:08:39;;;;;;;9.07;2.88;;;;;;;;;;5031024;28;20120;-75
2021/12/18 02:11:24;;;;;;;10.82;2.80;;;;;;;;;;5031331;28;20045;-75
2021/12/18 02:14:33;;;;;;;8.23;2.40;;;;;;;;;;5031080;28;20053;-75
2021/12/18 02:19:56;;;;;;;11.27;2.67;;;;;;;;;;5031390;28;20115;-75
2021/12/18 02:22:24;;;;;;;5.45;2.20;;;;;;;;;;5031223;28;20045;-75
2021/12/18 02:24:50;;;;;;;6.53;2.00;;;;;;;;;;5029723;28;20052;-75
2021/12/18 02:27:16;;;;;;;9.32;2.13;;;;;;;;;;5034937;28;20115;-75
2021/12/18 02:29:42;;;;;;;4.88;1.85;;;;;;;;;;5035202;28;20037;-75
2021/12/18 02:32:09;;;;;;;9.68;2.10;;;;;;;;;;5035497;28;20107;-75
2021/12/18 02:34:38;;;;;;;12.55;2.00;;;;;;;;;;5034962;28;20037;-75
2021/12/18 02:37:07;;;;;;;13.73;2.15;;;;;;;;;;5034134;28;20490;-75
2021/12/18 02:42:12;;;;;;;7.13;1.77;;;;;;;;;;5034996;28;20050;-75
2021/12/18 02:44:39;;;;;;;4.28;1.73;;;;;;;;;;5034242;28;20495;-74
2021/12/18 02:47:05;;;;;;;3.55;1.65;;;;;;;;;;5035268;28;20112;-75
2021/12/18 02:49:31;;;;;;;5.57;1.77;;;;;;;;;;5034614;28;20044;-74
2021/12/18 02:51:58;;;;;;;3.03;1.50;;;;;;;;;;5034964;28;20034;-75
2021/12/18 02:54:24;;;;;;;4.05;1.70;;;;;;;;;;5033331;28;20030;-74
2021/12/18 02:56:50;;;;;;;2.70;1.40;;;;;;;;;;5035577;28;20045;-74
2021/12/18 02:59:17;;;;;;;3.33;1.60;;;;;;;;;;5035430;28;20509;-74
2021/12/18 03:01:43;;;;;;;3.22;1.38;;;;;;;;;;5033814;28;20056;-75
2021/12/18 03:04:19;;;;;;;2.97;1.50;;;;;;;;;;5034805;28;20037;-74
2021/12/18 03:06:49;;;;;;;2.33;1.10;;;;;;;;;;5033474;28;20117;-75
2021/12/18 03:25:32;;;;;;;4.13;1.60;;;;;;;;;;5033779;28;20073;-74
2021/12/18 03:28:00;;;;;;;3.42;1.35;;;;;;;;;;5033781;28;20054;-74
2021/12/18 03:30:26;;;;;;;3.35;1.40;;;;;;;;;;5033986;28;20037;-74
2021/12/18 03:32:52;;;;;;;2.45;1.40;;;;;;;;;;5034061;28;20164;-74
2021/12/18 03:35:19;;;;;;;3.03;1.30;;;;;;;;;;5033888;28;20037;-74
2021/12/18 03:37:45;;;;;;;3.70;1.60;;;;;;;;;;5032824;28;20041;-74
2021/12/18 03:40:13;;;;;;;3.22;1.50;;;;;;;;;;5033334;28;20143;-74
2021/12/18 03:42:39;;;;;;;2.47;1.25;;;;;;;;;;5033136;28;20551;-74
2021/12/18 03:45:05;;;;;;;2.83;1.67;;;;;;;;;;5034060;28;20065;-74
2021/12/18 03:47:31;;;;;;;4.97;1.60;;;;;;;;;;5032755;28;20080;-74
2021/12/18 03:49:57;;;;;;;4.15;1.25;;;;;;;;;;5030314;28;20033;-74
2021/12/18 03:52:23;;;;;;;3.72;1.33;;;;;;;;;;5037397;28;20045;-74
2021/12/18 03:54:49;;;;;;;4.22;1.40;;;;;;;;;;5036764;28;20395;-74
2021/12/18 03:57:15;;;;;;;2.40;1.10;;;;;;;;;;5027896;28;20037;-74
2021/12/18 03:59:42;;;;;;;3.50;1.40;;;;;;;;;;5031585;28;20041;-74
2021/12/18 04:02:07;;;;;;;4.20;1.80;;;;;;;;;;5038481;28;20041;-74
2021/12/18 04:04:34;;;;;;;3.30;1.30;;;;;;;;;;5031979;28;20132;-74
2021/12/18 04:07:00;;;;;;;4.45;1.50;;;;;;;;;;5032898;28;20277;-74
2021/12/18 04:09:28;;;;;;;6.32;1.45;;;;;;;;;;5031121;28;20044;-74
2021/12/18 04:11:55;;;;;;;2.42;1.33;;;;;;;;;;5032674;28;20049;-74
2021/12/18 04:14:21;;;;;;;2.00;1.00;;;;;;;;;;5033358;28;20494;-74
2021/12/18 04:16:47;;;;;;;2.42;1.00;;;;;;;;;;5036639;28;20069;-74
2021/12/18 04:19:13;;;;;;;1.98;1.05;;;;;;;;;;5031688;28;20041;-74
2021/12/18 04:21:39;;;;;;;3.05;1.15;;;;;;;;;;5031327;28;20415;-74
2021/12/18 04:24:05;;;;;;;3.28;1.27;;;;;;;;;;5032484;28;20029;-74
2021/12/18 04:26:32;;;;;;;3.90;1.20;;;;;;;;;;5033255;28;20052;-74
2021/12/18 04:28:58;;;;;;;2.13;0.93;;;;;;;;;;5025019;28;20030;-74
2021/12/18 04:31:24;;;;;;;2.97;1.02;;;;;;;;;;5021186;28;20053;-74
2021/12/18 04:33:50;;;;;;;2.42;1.15;;;;;;;;;;5032165;28;20037;-74
2021/12/18 04:36:16;;;;;;;2.45;0.98;;;;;;;;;;5032870;28;20080;-74
2021/12/18 04:38:42;;;;;;;2.85;1.25;;;;;;;;;;5033029;28;20037;-74
2021/12/18 04:41:10;;;;;;;3.08;1.10;;;;;;;;;;5033319;28;20041;-74
2021/12/18 04:43:36;;;;;;;2.40;1.05;;;;;;;;;;5031874;28;20406;-74
2021/12/18 04:46:02;;;;;;;3.90;1.38;;;;;;;;;;5032072;28;20048;-74
2021/12/18 04:48:28;;;;;;;8.95;1.45;;;;;;;;;;5032989;28;20087;-74
2021/12/18 04:50:54;;;;;;;4.43;1.30;;;;;;;;;;5032671;28;20039;-74
2021/12/18 04:53:20;;;;;;;3.67;1.27;;;;;;;;;;5032590;28;20053;-74
2021/12/18 04:55:46;;;;;;;4.78;1.38;;;;;;;;;;5033506;28;20048;-74
2021/12/18 04:58:12;;;;;;;5.10;1.42;;;;;;;;;;5030868;28;20410;-74
2021/12/18 05:00:40;;;;;;;6.72;1.58;;;;;;;;;;5030965;28;20042;-74
2021/12/18 05:03:10;;;;;;;4.05;1.13;;;;;;;;;;5031028;28;20069;-74
2021/12/18 05:05:36;;;;;;;3.73;1.23;;;;;;;;;;5030655;28;20045;-74
2021/12/18 05:08:03;;;;;;;7.95;1.65;;;;;;;;;;5030569;28;20046;-74
2021/12/18 05:10:29;;;;;;;4.50;1.58;;;;;;;;;;5032428;28;20041;-74
2021/12/18 05:12:55;;;;;;;2.97;1.10;;;;;;;;;;5046817;28;20172;-74
2021/12/18 05:15:22;;;;;;;3.83;1.42;;;;;;;;;;5032163;28;20573;-74
2021/12/18 05:17:48;;;;;;;4.88;1.15;;;;;;;;;;5031995;28;20167;-74
2021/12/18 05:20:14;;;;;;;5.88;1.98;;;;;;;;;;5032912;28;20064;-74
2021/12/18 05:22:40;;;;;;;4.65;1.65;;;;;;;;;;5031452;28;20076;-74
2021/12/18 05:25:06;;;;;;;5.75;1.60;;;;;;;;;;5031927;28;20040;-73
2021/12/18 05:27:33;;;;;;;4.72;1.42;;;;;;;;;;5032117;28;20041;-74
2021/12/18 05:29:59;;;;;;;5.72;1.40;;;;;;;;;;5032023;28;20037;-73
2021/12/18 05:32:25;;;;;;;6.28;2.10;;;;;;;;;;5031101;28;20116;-74
2021/12/18 05:34:51;;;;;;;6.85;1.75;;;;;;;;;;5031509;28;20040;-74
2021/12/18 05:37:20;;;;;;;4.95;1.60;;;;;;;;;;5032291;28;20047;-74
2021/12/18 05:39:47;;;;;;;4.95;1.92;;;;;;;;;;5031510;28;20041;-74
2021/12/18 05:42:13;;;;;;;4.85;1.48;;;;;;;;;;5030913;28;20037;-74
2021/12/18 05:44:39;;;;;;;5.70;1.50;;;;;;;;;;5031679;28;20048;-73
2021/12/18 05:47:05;;;;;;;4.65;1.90;;;;;;;;;;5031936;28;20046;-74
2021/12/18 05:49:31;;;;;;;4.32;1.80;;;;;;;;;;5031469;28;20080;-74
2021/12/18 05:51:57;;;;;;;7.53;1.80;;;;;;;;;;5031093;28;20040;-74
2021/12/18 05:54:23;;;;;;;8.73;1.77;;;;;;;;;;5031549;28;20042;-74
2021/12/18 05:56:49;;;;;;;5.93;1.65;;;;;;;;;;5031852;28;20513;-74
2021/12/18 05:59:15;;;;;;;5.90;1.60;;;;;;;;;;5031125;28;20037;-74
2021/12/18 06:01:41;;;;;;;7.00;1.83;;;;;;;;;;5029969;28;20077;-74
2021/12/18 06:04:08;;;;;;;6.00;1.65;;;;;;;;;;5030415;28;20045;-74
2021/12/18 06:06:34;;;;;;;4.45;1.70;;;;;;;;;;5027593;28;20040;-74
2021/12/18 06:09:00;;;;;;;4.65;1.40;;;;;;;;;;5028456;28;20156;-74
2021/12/18 06:11:28;;;;;;;4.22;1.50;;;;;;;;;;5026628;28;20497;-74
2021/12/18 06:13:54;;;;;;;9.05;1.95;;;;;;;;;;5024143;28;20050;-74
2021/12/18 06:16:20;;;;;;;7.43;1.75;;;;;;;;;;5039416;22;20178;31
2021/12/18 06:18:50;;;;;;;6.85;1.83;;;;;;;;;;5039518;28;20068;-64
2021/12/18 06:21:17;;;;;;;4.97;1.42;;;;;;;;;;5024589;28;20045;-64
2021/12/18 06:23:43;;;;;;;6.03;1.88;;;;;;;;;;5027397;28;20051;-65
2021/12/18 06:26:10;;;;;;;6.80;1.98;;;;;;;;;;5028485;28;20116;-63
2021/12/18 06:28:36;;;;;;;7.90;1.85;;;;;;;;;;5027808;28;20410;-64
2021/12/18 06:31:02;;;;;;;6.90;2.10;;;;;;;;;;5027022;28;20512;-63
2021/12/18 06:33:28;;;;;;;7.60;2.10;;;;;;;;;;5035667;28;20052;-63
2021/12/18 06:35:54;;;;;;;5.47;1.80;;;;;;;;;;5029872;28;20052;-63
2021/12/18 06:38:20;;;;;;;5.70;1.70;;;;;;;;;;5031608;28;20045;-63
2021/12/18 06:40:46;;;;;;;5.13;1.83;;;;;;;;;;5028289;28;20052;-63
2021/12/18 06:43:12;;;;;;;7.38;1.73;;;;;;;;;;5023628;28;20034;-64
2021/12/18 06:45:39;;;;;;;5.75;1.90;;;;;;;;;;5031621;28;20041;-63
2021/12/18 06:48:05;;;;;;;5.18;1.80;;;;;;;;;;5040266;28;20033;-64
2021/12/18 06:50:32;;;;;;;8.95;2.28;;;;;;;;;;5030722;28;20038;-63
2021/12/18 06:52:58;;;;;;;7.30;2.40;;;;;;;;;;5038476;28;20037;-63
2021/12/18 06:55:23;;;;;;;10.43;2.20;;;;;;;;;;5038782;28;20037;-64
2021/12/18 06:57:50;;;;;;;4.55;1.98;;;;;;;;;;5042013;28;20060;-64
2021/12/18 07:00:16;;;;;;;6.68;1.90;;;;;;;;;;5037280;28;20114;-64
2021/12/18 07:02:42;;;;;;;6.95;1.75;;;;;;;;;;5025903;28;20578;-64
2021/12/18 07:05:09;;;;;;;7.22;2.33;;;;;;;;;;5036015;28;20044;-64
2021/12/18 07:07:35;;;;;;;7.53;2.03;;;;;;;;;;5038757;28;20040;-64
2021/12/18 07:10:02;;;;;;;8.40;2.30;;;;;;;;;;5025250;28;20044;-64
2021/12/18 07:12:28;;;;;;;5.32;2.10;;;;;;;;;;5030938;28;20049;-64
2021/12/18 07:14:54;;;;;;;11.93;2.47;;;;;;;;;;5039512;28;20033;-64
2021/12/18 07:17:20;;;;;;;10.57;2.45;;;;;;;;;;5039628;28;20083;-64
2021/12/18 07:19:46;;;;;;;8.32;2.30;;;;;;;;;;5031964;28;20045;-63
2021/12/18 07:22:12;;;;;;;6.55;1.80;;;;;;;;;;5038414;28;20072;-64
2021/12/18 07:24:38;;;;;;;8.60;2.47;;;;;;;;;;5032013;28;20463;-64
2021/12/18 07:27:04;;;;;;;7.45;2.17;;;;;;;;;;5033743;22;20050;-63
2021/12/18 07:29:30;;;;;;;8.07;2.28;;;;;;;;;;5008991;28;20046;-64
2021/12/18 07:31:56;;;;;;;8.27;1.95;;;;;;;;;;5009069;28;20566;-64
2021/12/18 07:34:22;;;;;;;7.22;2.25;;;;;;;;;;5011972;28;20140;-64
2021/12/18 07:36:48;;;;;;;9.98;2.78;;;;;;;;;;5008993;28;20049;-64
2021/12/18 07:39:16;;;;;;;8.82;2.40;;;;;;;;;;5008330;28;20030;-64
2021/12/18 07:41:42;;;;;;;8.55;2.92;;;;;;;;;;5010092;28;20042;-64
2021/12/18 07:44:08;;;;;;;12.20;3.55;;;;;;;;;;5006306;28;20050;-64
2021/12/18 07:46:35;;;;;;;7.22;3.33;;;;;;;;;;5005131;28;20084;-64
2021/12/18 07:49:03;;;;;;;7.82;3.42;;;;;;;;;;4994903;28;20046;-64
2021/12/18 07:51:29;;;;;;;8.93;3.25;;;;;;;;;;5003939;28;20141;-64
2021/12/18 07:53:55;;;;;;;7.82;3.53;;;;;;;;;;5013048;28;20129;-64
2021/12/18 07:56:21;;;;;;;13.18;3.55;;;;;;;;;;5011731;28;20045;-64
2021/12/18 07:58:47;;;;;;;8.15;3.03;;;;;;;;;;5012321;28;20050;-65
2021/12/18 08:01:13;;;;;;;10.98;2.95;;;;;;;;;;4995535;28;20046;-64
2021/12/18 08:03:40;;;;;;;12.27;3.17;;;;;;;;;;4995290;28;20126;-64
2021/12/18 08:06:06;;;;;;;7.18;2.90;;;;;;;;;;4995938;28;20038;-65
2021/12/18 08:08:32;;;;;;;7.53;2.90;;;;;;;;;;5006480;28;20052;-64
2021/12/18 08:10:58;;;;;;;10.82;2.70;;;;;;;;;;5004018;28;20038;-64
2021/12/18 08:13:24;;;;;;;18.70;3.42;;;;;;;;;;5009699;28;20120;-64
2021/12/18 08:15:50;;;;;;;11.02;3.20;;;;;;;;;;5013120;28;20042;-64
2021/12/18 08:18:16;;;;;;;12.30;3.50;;;;;;;;;;5008408;28;20041;-65
2021/12/18 08:20:42;;;;;;;17.92;3.40;;;;;;;;;;5009156;28;20049;-65
2021/12/18 08:23:08;;;;;;;9.02;3.15;;;;;;;;;;4998547;28;20030;-64
2021/12/18 08:25:35;;;;;;;14.05;3.65;;;;;;;;;;5004463;28;20064;-65
2021/12/18 08:28:01;;;;;;;11.25;3.42;;;;;;;;;;5005454;28;20427;-65
2021/12/18 08:30:28;;;;;;;15.13;3.65;;;;;;;;;;5011849;28;20100;-65
2021/12/18 08:32:54;;;;;;;14.45;3.70;;;;;;;;;;5002800;28;20040;-64
2021/12/18 08:35:20;;;;;;;8.43;3.35;;;;;;;;;;5013477;28;20111;-64
2021/12/18 08:37:46;;;;;;;10.50;3.55;;;;;;;;;;5004530;28;20038;-65
2021/12/18 08:40:13;;;;;;;14.02;3.33;;;;;;;;;;4993983;28;20038;-65
2021/12/18 08:42:39;;;;;;;14.13;3.38;;;;;;;;;;4999576;28;20038;-65
2021/12/18 08:45:06;;;;;;;12.32;3.40;;;;;;;;;;5011542;28;20053;-65
2021/12/18 08:47:32;;;;;;;11.13;3.78;;;;;;;;;;4997760;28;20070;-65
2021/12/18 08:49:58;;;;;;;14.75;4.07;;;;;;;;;;4993467;28;20054;-65
2021/12/18 08:52:24;;;;;;;14.18;3.78;;;;;;;;;;5000477;28;20073;-65
2021/12/18 08:54:50;;;;;;;13.05;4.13;;;;;;;;;;5003322;28;20219;-64
2021/12/18 08:57:16;;;;;;;13.63;3.90;;;;;;;;;;5002713;28;20058;-64
2021/12/18 08:59:42;;;;;;;14.52;4.05;;;;;;;;;;5011454;28;20048;-64
2021/12/18 09:02:09;;;;;;;15.95;4.35;;;;;;;;;;5003791;28;20414;-65
2021/12/18 09:04:35;;;;;;;12.65;4.22;;;;;;;;;;5002537;28;20053;-64
2021/12/18 09:07:01;;;;;;;13.98;4.40;;;;;;;;;;4997302;28;20061;-65
2021/12/18 09:09:27;;;;;;;19.15;4.55;;;;;;;;;;5003510;28;20054;-65
2021/12/18 09:11:53;;;;;;;13.90;4.43;;;;;;;;;;5004205;28;20050;-65
2021/12/18 09:14:19;;;;;;;16.02;4.18;;;;;;;;;;4993311;28;20439;-65
2021/12/18 09:16:45;;;;;;;13.90;4.40;;;;;;;;;;4996691;28;20574;-65
2021/12/18 09:19:12;;;;;;;14.07;3.90;;;;;;;;;;5001935;28;20050;-65
2021/12/18 09:21:38;;;;;;;15.82;4.38;;;;;;;;;;5003725;28;20064;-64
2021/12/18 09:24:04;;;;;;;12.60;4.40;;;;;;;;;;5010864;28;20080;-65
2021/12/18 09:26:30;;;;;;;16.27;4.68;;;;;;;;;;5008152;28;20117;-65
2021/12/18 09:28:56;;;;;;;17.65;5.53;;;;;;;;;;5002934;28;20165;-66
2021/12/18 09:31:24;;;;;;;20.85;5.40;;;;;;;;;;5003841;28;20038;-64
2021/12/18 09:33:50;;;;;;;22.58;5.18;;;;;;;;;;5005887;28;20113;-64
2021/12/18 09:36:17;;;;;;;12.13;4.47;;;;;;;;;;5007587;28;20050;-64
2021/12/18 09:38:43;;;;;;;7.65;3.45;;;;;;;;;;5001485;28;20046;-64
2021/12/18 09:41:09;;;;;;;17.13;5.20;;;;;;;;;;5000964;28;20038;-64
2021/12/18 09:43:36;;;;;;;15.30;5.00;;;;;;;;;;5004147;28;20038;-65
2021/12/18 09:46:03;;;;;;;15.80;5.32;;;;;;;;;;4992862;28;20042;-64
2021/12/18 09:48:29;;;;;;;20.77;6.45;;;;;;;;;;4997865;28;20053;-64
2021/12/18 09:50:57;;;;;;;23.42;5.47;;;;;;;;;;5005195;28;20042;-64
2021/12/18 09:53:24;;;;;;;16.15;5.30;;;;;;;;;;5005360;28;20558;-64
2021/12/18 09:55:50;;;;;;;17.00;5.28;;;;;;;;;;5012397;28;20065;-64
2021/12/18 09:58:16;;;;;;;25.42;5.82;;;;;;;;;;5010150;28;20104;-64
2021/12/18 10:00:42;;;;;;;16.13;6.13;;;;;;;;;;5007307;28;20042;-64
2021/12/18 10:03:08;;;;;;;17.65;5.35;;;;;;;;;;4993156;28;20080;-64
2021/12/18 10:05:35;;;;;;;15.60;5.40;;;;;;;;;;4991386;28;20599;-64
2021/12/18 10:08:27;;;;;;;18.13;6.03;;;;;;;;;;5002001;28;20068;-64
2021/12/18 10:10:58;;;;;;;19.20;6.47;;;;;;;;;;4997202;28;20068;-64
2021/12/18 10:13:24;;;;;;;18.43;6.30;;;;;;;;;;4993058;28;20043;-65
2021/12/18 10:16:06;;;;;;;19.58;6.15;;;;;;;;;;4992304;28;20652;-64
2021/12/18 10:18:33;;;;;;;16.55;5.78;;;;;;;;;;4992822;28;20499;-64
2021/12/18 10:21:09;;;;;;;19.75;5.50;;;;;;;;;;4997042;28;20109;-64
2021/12/18 10:23:35;;;;;;;18.50;6.18;;;;;;;;;;4991865;28;20042;-64
2021/12/18 10:26:01;;;;;;;19.05;5.90;;;;;;;;;;4995917;28;20487;-65
2021/12/18 10:28:42;;;;;;;17.65;6.30;;;;;;;;;;4991935;28;20045;-64
2021/12/18 10:31:07;;;;;;;14.10;5.50;;;;;;;;;;4995810;28;20502;-65
2021/12/18 10:33:35;;;;;;;14.55;4.65;;;;;;;;;;5008978;28;20042;-64
2021/12/18 10:36:01;;;;;;;12.02;4.10;;;;;;;;;;5006618;28;20073;-64
2021/12/18 10:38:42;;;;;;;7.13;3.05;;;;;;;;;;5006226;28;20074;-64
2021/12/18 10:41:25;;;;;;;7.80;2.67;;;;;;;;;;4994105;28;20057;-64
2021/12/18 10:44:03;;;;;;;12.70;2.42;;;;;;;;;;5001476;28;20408;-65
2021/12/18 10:46:30;;;;;;;11.10;2.63;;;;;;;;;;4995067;28;20070;-65
2021/12/18 10:48:57;;;;;;;10.10;2.50;;;;;;;;;;5007528;28;20035;-65
2021/12/18 10:51:24;;;;;;;11.88;2.65;;;;;;;;;;5010522;28;20069;-65
2021/12/18 10:53:52;;;;;;;6.75;2.25;;;;;;;;;;5014911;28;20116;-65
2021/12/18 10:56:30;;;;;;;11.70;2.80;;;;;;;;;;5011413;28;20121;-65
2021/12/18 10:58:56;;;;;;;8.63;2.10;;;;;;;;;;5006534;28;20092;-65
2021/12/18 11:01:22;;;;;;;8.05;2.40;;;;;;;;;;5012781;28;20496;-65
2021/12/18 11:03:50;;;;;;;8.68;2.30;;;;;;;;;;5015104;28;20734;-65
2021/12/18 11:06:23;;;;;;;7.28;2.20;;;;;;;;;;5015265;28;20099;-65
2021/12/18 11:08:58;;;;;;;7.53;1.80;;;;;;;;;;5010445;28;20081;-65
2021/12/18 11:14:20;;;;;;;7.85;1.83;;;;;;;;;;5014574;28;20156;-65
2021/12/18 11:16:48;;;;;;;9.07;2.08;;;;;;;;;;5007998;28;20057;-65
2021/12/18 11:19:16;;;;;;;12.52;1.92;;;;;;;;;;5005621;28;20037;-65
2021/12/18 11:21:42;;;;;;;8.48;2.28;;;;;;;;;;5011285;28;20046;-65
2021/12/18 11:24:09;;;;;;;9.80;2.28;;;;;;;;;;5005866;28;20046;-65
2021/12/18 11:26:41;;;;;;;7.95;1.95;;;;;;;;;;5003063;28;20395;-65
2021/12/18 11:29:11;;;;;;;7.10;2.33;;;;;;;;;;5003564;28;20069;-65
2021/12/18 11:31:38;;;;;;;10.95;2.38;;;;;;;;;;5003570;28;20053;-65
2021/12/18 11:34:05;;;;;;;7.82;2.20;;;;;;;;;;5012070;28;20038;-65
2021/12/18 11:36:31;;;;;;;8.80;2.60;;;;;;;;;;5007781;28;20095;-65
2021/12/18 11:38:58;;;;;;;10.98;2.70;;;;;;;;;;5013392;28;20121;-65
2021/12/18 11:41:24;;;;;;;10.35;2.90;;;;;;;;;;5007719;28;20133;-65
2021/12/18 11:43:50;;;;;;;6.70;2.67;;;;;;;;;;5012173;28;20128;-65
2021/12/18 11:46:25;;;;;;;7.32;2.75;;;;;;;;;;5003197;28;20045;-65
2021/12/18 11:48:52;;;;;;;9.93;3.38;;;;;;;;;;5001502;28;20541;-65
2021/12/18 11:51:18;;;;;;;8.40;3.08;;;;;;;;;;5012947;28;20041;-65
2021/12/18 11:53:43;;;;;;;11.73;3.30;;;;;;;;;;5009046;28;20030;-65
2021/12/18 11:56:10;;;;;;;9.25;3.47;;;;;;;;;;5009086;28;20135;-65
2021/12/18 11:58:41;;;;;;;10.82;3.80;;;;;;;;;;5003025;28;20049;-65
2021/12/18 12:01:13;;;;;;;9.38;3.30;;;;;;;;;;5002919;28;20038;-65
2021/12/18 12:03:42;;;;;;;10.02;3.35;;;;;;;;;;5009913;28;20049;-65
2021/12/18 12:06:33;;;;;;;9.93;3.50;;;;;;;;;;5009082;28;20509;-65
2021/12/18 12:09:14;;;;;;;9.15;3.13;;;;;;;;;;4999778;28;20488;-65
2021/12/18 12:11:49;;;;;;;10.73;3.50;;;;;;;;;;5005758;28;20121;-65
2021/12/18 12:14:15;;;;;;;7.32;3.42;;;;;;;;;;5001436;28;20038;-65
2021/12/18 12:16:44;;;;;;;10.93;3.83;;;;;;;;;;5018619;23;20041;-64
2021/12/18 12:19:13;;;;;;;7.47;3.22;;;;;;;;;;5029854;28;20152;-65
2021/12/18 12:21:46;;;;;;;10.20;4.30;;;;;;;;;;5031334;28;20103;-65
2021/12/18 12:24:13;;;;;;;8.23;4.03;;;;;;;;;;5033258;28;20491;-65
2021/12/18 12:26:39;;;;;;;10.55;3.60;;;;;;;;;;5032098;28;20033;-65
2021/12/18 12:29:06;;;;;;;10.32;3.40;;;;;;;;;;5010344;28;20120;-67
2021/12/18 12:31:32;;;;;;;6.93;3.03;;;;;;;;;;5012039;28;20045;-66
2021/12/18 12:34:16;;;;;;;7.95;3.13;;;;;;;;;;5012020;28;20045;-66
2021/12/18 12:36:45;;;;;;;6.50;2.97;;;;;;;;;;5013608;28;20450;-66
2021/12/18 12:39:13;;;;;;;10.18;4.05;;;;;;;;;;5013224;28;20045;-66
2021/12/18 12:41:48;;;;;;;8.48;4.70;;;;;;;;;;5012142;28;20088;-66
2021/12/18 12:44:26;;;;;;;10.45;4.47;;;;;;;;;;5013298;28;20561;-66
2021/12/18 12:47:11;;;;;;;7.15;3.72;;;;;;;;;;5013466;28;20184;-66
2021/12/18 12:49:37;;;;;;;12.50;4.80;;;;;;;;;;5012759;28;20041;-67
2021/12/18 12:52:08;;;;;;;9.00;4.15;;;;;;;;;;5003504;28;20457;-66
2021/12/18 12:54:48;;;;;;;7.80;3.10;;;;;;;;;;5013071;28;20053;-66
2021/12/18 12:57:24;;;;;;;5.95;3.05;;;;;;;;;;5013264;28;20042;-66
2021/12/18 12:59:49;;;;;;;7.03;2.53;;;;;;;;;;5013327;28;20057;-66
2021/12/18 13:02:16;;;;;;;8.27;2.75;;;;;;;;;;5012802;28;20038;-66
2021/12/18 13:04:42;;;;;;;9.20;2.60;;;;;;;;;;5011438;28;20084;-66
2021/12/18 13:07:08;;;;;;;8.90;3.00;;;;;;;;;;5012812;28;20113;-66
2021/12/18 13:09:34;;;;;;;7.90;3.08;;;;;;;;;;5011794;28;20049;-66
2021/12/18 13:12:04;;;;;;;9.55;3.33;;;;;;;;;;5012767;28;20073;-66
2021/12/18 13:14:37;;;;;;;8.23;4.05;;;;;;;;;;5012647;28;20091;-66
2021/12/18 13:17:16;;;;;;;13.05;4.35;;;;;;;;;;5012240;28;20069;-66
2021/12/18 13:20:12;;;;;;;11.65;3.60;;;;;;;;;;5011941;28;20052;-66
2021/12/18 13:22:38;;;;;;;10.68;3.65;;;;;;;;;;4989825;28;20100;-66
2021/12/18 13:25:08;;;;;;;8.70;3.55;;;;;;;;;;4993458;28;20096;-66
2021/12/18 13:27:35;;;;;;;7.43;3.75;;;;;;;;;;4999082;28;20088;-66
2021/12/18 13:30:15;;;;;;;10.15;4.18;;;;;;;;;;5012284;28;20384;-66
2021/12/18 13:32:55;;;;;;;11.15;3.45;;;;;;;;;;5012256;28;20049;-66
2021/12/18 13:35:22;;;;;;;9.90;3.43;;;;;;;;;;5012240;28;20125;-67
2021/12/18 13:37:54;;;;;;;9.63;3.80;;;;;;;;;;5012468;28;20042;-66
2021/12/18 13:40:20;;;;;;;10.30;3.88;;;;;;;;;;5011748;28;20082;-67
2021/12/18 13:42:46;;;;;;;11.02;4.20;;;;;;;;;;5010520;28;20072;-66
2021/12/18 13:45:12;;;;;;;9.98;4.13;;;;;;;;;;5011385;28;20038;-66
2021/12/18 13:47:40;;;;;;;8.65;2.80;;;;;;;;;;5012337;28;20072;-66
2021/12/18 13:50:11;;;;;;;8.52;3.08;;;;;;;;;;5012132;28;20109;-66
2021/12/18 13:52:39;;;;;;;7.13;2.67;;;;;;;;;;5010628;28;20061;-66
2021/12/18 13:55:24;;;;;;;9.00;2.53;;;;;;;;;;5012346;28;20077;-66
2021/12/18 13:57:57;;;;;;;10.30;2.15;;;;;;;;;;5012262;28;20042;-66
2021/12/18 14:00:23;;;;;;;7.63;2.20;;;;;;;;;;5011257;28;20483;-66
2021/12/18 14:02:49;;;;;;;8.85;2.40;;;;;;;;;;5011714;28;20084;-66
2021/12/18 14:05:15;;;;;;;8.68;2.25;;;;;;;;;;5011614;28;20396;-66
2021/12/18 14:07:42;;;;;;;8.50;2.72;;;;;;;;;;5011954;28;20038;-66
2021/12/18 14:10:09;;;;;;;8.68;3.47;;;;;;;;;;5011065;28;20033;-67
2021/12/18 14:12:35;;;;;;;10.30;3.75;;;;;;;;;;5011229;28;20050;-67
2021/12/18 14:15:01;;;;;;;8.63;3.97;;;;;;;;;;5011711;28;20057;-67
2021/12/18 14:17:27;;;;;;;10.05;3.20;;;;;;;;;;5008343;28;20041;-66
2021/12/18 14:19:54;;;;;;;11.10;3.58;;;;;;;;;;5004263;28;20092;-66
2021/12/18 14:22:23;;;;;;;11.85;4.00;;;;;;;;;;5015462;28;20107;-67
2021/12/18 14:24:58;;;;;;;9.43;3.78;;;;;;;;;;5008379;28;20046;-67
2021/12/18 14:27:24;;;;;;;8.32;3.20;;;;;;;;;;5015327;28;20046;-66
2021/12/18 14:29:54;;;;;;;9.05;2.75;;;;;;;;;;5015905;28;20091;-66
2021/12/18 14:32:22;;;;;;;6.13;3.50;;;;;;;;;;5014280;28;20329;-66
2021/12/18 14:34:47;;;;;;;10.23;3.35;;;;;;;;;;5015465;28;20537;-66
2021/12/18 14:37:13;;;;;;;10.63;3.30;;;;;;;;;;5015269;28;20037;-67
2021/12/18 14:39:47;;;;;;;10.00;2.95;;;;;;;;;;5014921;28;20110;-67
2021/12/18 14:42:32;;;;;;;10.43;3.40;;;;;;;;;;5013108;28;20069;-67
2021/12/18 14:44:58;;;;;;;10.55;3.50;;;;;;;;;;5012221;28;20104;-67
2021/12/18 14:47:32;;;;;;;8.02;2.95;;;;;;;;;;5015656;28;20037;-67
2021/12/18 14:50:18;;;;;;;12.27;3.15;;;;;;;;;;5015191;28;20044;-66
2021/12/18 14:52:50;;;;;;;9.38;2.78;;;;;;;;;;5013611;28;20041;-66
2021/12/18 14:55:18;;;;;;;9.30;3.47;;;;;;;;;;5013553;28;20034;-67
2021/12/18 14:57:52;;;;;;;7.47;3.58;;;;;;;;;;5006296;28;20041;-67
2021/12/18 15:00:21;;;;;;;11.75;4.30;;;;;;;;;;5015244;28;20029;-66
2021/12/18 15:02:58;;;;;;;9.25;3.88;;;;;;;;;;5010263;28;20069;-66
2021/12/18 15:05:25;;;;;;;9.40;3.13;;;;;;;;;;5003597;28;20045;-67
2021/12/18 15:08:17;;;;;;;9.15;3.55;;;;;;;;;;5013059;28;20046;-66
2021/12/18 15:11:09;;;;;;;12.43;4.15;;;;;;;;;;5013571;28;20506;-67
2021/12/18 15:13:37;;;;;;;7.90;3.47;;;;;;;;;;5012626;28;20050;-67
2021/12/18 15:16:05;;;;;;;8.25;2.95;;;;;;;;;;5014999;28;20038;-67
2021/12/18 15:18:31;;;;;;;8.43;3.40;;;;;;;;;;5018202;28;20096;-67
2021/12/18 15:20:57;;;;;;;13.15;3.40;;;;;;;;;;5019609;28;20041;-67
2021/12/18 15:23:23;;;;;;;12.27;3.03;;;;;;;;;;5016247;28;20045;-66